createdAt,value
2018-11-23T00:00:16.107Z,73.40
2018-11-23T00:02:44.688Z,73.50
2018-11-23T00:05:12.592Z,73.10
2018-11-23T00:07:40.868Z,72.50
2018-11-23T00:10:11.156Z,73.00
2018-11-23T00:12:37.792Z,73.20
2018-11-23T00:15:07.143Z,73.10
2018-11-23T00:17:34.863Z,72.50
2018-11-23T00:20:02.464Z,72.40
2018-11-23T00:22:30.033Z,72.10
2018-11-23T00:24:57.611Z,71.50
2018-11-23T00:27:25.180Z,71.00
2018-11-23T00:29:52.704Z,71.20
2018-11-23T00:32:20.260Z,71.50
2018-11-23T00:34:47.805Z,71.70
2018-11-23T00:37:15.343Z,72.20
2018-11-23T00:39:42.826Z,73.10
2018-11-23T00:42:10.483Z,73.20
2018-11-23T00:44:38.084Z,73.40
2018-11-23T00:47:05.641Z,73.40
2018-11-23T00:49:33.139Z,73.50
2018-11-23T00:52:00.731Z,73.40
2018-11-23T00:54:28.345Z,73.00
2018-11-23T00:56:56.002Z,73.00
2018-11-23T00:59:23.527Z,72.80
2018-11-23T01:01:56.779Z,72.60
2018-11-23T01:04:24.382Z,72.80
2018-11-23T01:06:51.987Z,72.70
2018-11-23T01:09:19.653Z,72.50
2018-11-23T01:11:47.193Z,72.40
2018-11-23T01:14:14.722Z,73.30
2018-11-23T01:16:42.325Z,74.00
2018-11-23T01:19:09.957Z,73.60
2018-11-23T01:21:37.455Z,74.10
2018-11-23T01:24:04.930Z,73.40
2018-11-23T01:26:32.451Z,73.90
2018-11-23T01:28:59.955Z,74.20
2018-11-23T01:31:27.444Z,73.40
2018-11-23T01:33:55.006Z,74.00
2018-11-23T01:36:22.627Z,73.70
2018-11-23T01:38:50.116Z,73.70
2018-11-23T01:41:17.698Z,72.90
2018-11-23T01:43:45.285Z,72.70
2018-11-23T01:46:12.798Z,73.00
2018-11-23T01:48:40.414Z,73.00
2018-11-23T01:51:08.065Z,73.00
2018-11-23T01:53:35.593Z,73.10
2018-11-23T01:56:03.140Z,73.10
2018-11-23T01:58:30.681Z,73.10
2018-11-23T02:00:58.182Z,72.60
2018-11-23T02:03:25.815Z,72.90
2018-11-23T02:05:53.459Z,72.40
2018-11-23T02:08:20.938Z,72.60
2018-11-23T02:10:48.544Z,72.70
2018-11-23T02:13:16.064Z,73.00
2018-11-23T02:15:43.626Z,72.90
2018-11-23T02:18:11.095Z,72.90
2018-11-23T02:20:38.727Z,72.60
2018-11-23T02:23:06.362Z,72.50
2018-11-23T02:25:33.909Z,73.00
2018-11-23T02:28:01.477Z,72.70
2018-11-23T02:30:29.048Z,72.80
2018-11-23T02:32:56.612Z,72.20
2018-11-23T02:35:24.126Z,72.50
2018-11-23T02:37:51.681Z,72.30
2018-11-23T02:40:19.961Z,73.20
2018-11-23T02:42:47.521Z,72.80
2018-11-23T02:45:16.819Z,72.60
2018-11-23T02:47:45.035Z,72.00
2018-11-23T02:50:12.602Z,71.90
2018-11-23T02:52:40.821Z,71.70
2018-11-23T02:55:09.419Z,71.50
2018-11-23T02:57:37.034Z,72.10
2018-11-23T03:00:06.612Z,72.30
2018-11-23T03:02:34.158Z,73.20
2018-11-23T03:05:01.770Z,72.80
2018-11-23T03:07:29.333Z,73.20
2018-11-23T03:09:56.889Z,73.20
2018-11-23T03:12:24.469Z,72.90
2018-11-23T03:14:52.045Z,73.10
2018-11-23T03:17:19.655Z,72.80
2018-11-23T03:19:47.218Z,72.60
2018-11-23T03:22:14.822Z,72.90
2018-11-23T03:24:42.345Z,73.50
2018-11-23T03:27:09.846Z,73.50
2018-11-23T03:29:37.335Z,72.90
2018-11-23T03:32:04.919Z,71.70
2018-11-23T03:34:32.509Z,70.90
2018-11-23T03:37:00.143Z,71.50
2018-11-23T03:39:30.391Z,70.70
2018-11-23T03:41:55.370Z,71.00
2018-11-23T03:44:22.929Z,71.70
2018-11-23T03:46:50.442Z,72.10
2018-11-23T03:49:17.978Z,72.70
2018-11-23T03:51:45.522Z,72.20
2018-11-23T03:54:13.047Z,73.80
2018-11-23T03:56:40.697Z,73.90
2018-11-23T03:59:08.298Z,73.80
2018-11-23T04:01:35.922Z,73.40
2018-11-23T04:04:03.836Z,73.30
2018-11-23T04:06:31.351Z,73.80
2018-11-23T04:08:58.864Z,74.10
2018-11-23T04:11:26.373Z,74.80
2018-11-23T04:13:53.993Z,75.30
2018-11-23T04:16:21.456Z,75.40
2018-11-23T04:18:49.099Z,75.50
2018-11-23T04:21:16.609Z,76.30
2018-11-23T04:23:44.104Z,76.40
2018-11-23T04:26:11.627Z,76.30
2018-11-23T04:28:39.217Z,76.20
2018-11-23T04:31:06.722Z,75.90
2018-11-23T04:33:34.331Z,76.10
2018-11-23T04:36:01.879Z,76.20
2018-11-23T04:38:29.527Z,76.10
2018-11-23T04:40:57.085Z,76.70
2018-11-23T04:43:24.646Z,77.20
2018-11-23T04:45:52.207Z,76.50
2018-11-23T04:48:19.697Z,76.70
2018-11-23T04:50:47.244Z,77.30
2018-11-23T04:53:14.839Z,77.30
2018-11-23T04:55:42.405Z,76.60
2018-11-23T04:58:10.040Z,77.80
2018-11-23T05:00:37.659Z,78.30
2018-11-23T05:03:05.313Z,77.90
2018-11-23T05:05:32.918Z,78.80
2018-11-23T05:08:00.444Z,78.50
2018-11-23T05:10:28.020Z,78.40
2018-11-23T05:12:55.525Z,78.90
2018-11-23T05:15:23.105Z,78.80
2018-11-23T05:17:50.734Z,79.00
2018-11-23T05:20:18.258Z,79.40
2018-11-23T05:22:45.795Z,79.40
2018-11-23T05:25:14.708Z,80.10
2018-11-23T05:27:42.301Z,80.30
2018-11-23T05:30:12.145Z,80.50
2018-11-23T05:32:39.961Z,80.70
2018-11-23T05:35:08.547Z,80.90
2018-11-23T05:37:36.233Z,80.60
2018-11-23T05:40:05.565Z,81.10
2018-11-23T05:42:33.037Z,81.30
2018-11-23T05:45:00.577Z,81.80
2018-11-23T05:47:28.133Z,81.60
2018-11-23T05:49:55.607Z,80.80
2018-11-23T05:52:23.210Z,81.60
2018-11-23T05:54:50.919Z,81.70
2018-11-23T05:57:18.487Z,81.10
2018-11-23T05:59:46.057Z,81.70
2018-11-23T06:02:13.674Z,82.00
2018-11-23T06:04:41.163Z,82.90
2018-11-23T06:07:08.707Z,83.20
2018-11-23T06:09:36.228Z,83.30
2018-11-23T06:12:03.843Z,83.50
2018-11-23T06:14:31.424Z,84.20
2018-11-23T06:16:58.947Z,83.70
2018-11-23T06:19:26.461Z,83.60
2018-11-23T06:21:53.986Z,83.60
2018-11-23T06:24:21.590Z,83.50
2018-11-23T06:26:49.127Z,83.30
2018-11-23T06:29:16.594Z,83.20
2018-11-23T06:31:44.070Z,83.10
2018-11-23T06:34:11.689Z,83.30
2018-11-23T06:36:39.357Z,83.20
2018-11-23T06:39:07.865Z,82.80
2018-11-23T06:41:35.527Z,83.20
2018-11-23T06:44:03.183Z,83.30
2018-11-23T06:46:30.828Z,83.10
2018-11-23T06:48:58.309Z,82.60
2018-11-23T06:51:25.810Z,82.10
2018-11-23T06:53:53.588Z,82.50
2018-11-23T06:56:21.132Z,82.40
2018-11-23T06:58:48.684Z,82.80
2018-11-23T07:01:16.274Z,83.10
2018-11-23T07:03:43.862Z,83.70
2018-11-23T07:06:11.416Z,82.80
2018-11-23T07:08:39.077Z,82.90
2018-11-23T07:11:06.739Z,83.00
2018-11-23T07:13:34.236Z,82.30
2018-11-23T07:16:01.799Z,81.90
2018-11-23T07:18:29.362Z,82.20
2018-11-23T07:20:56.997Z,82.00
2018-11-23T07:23:24.529Z,82.30
2018-11-23T07:25:52.199Z,82.20
2018-11-23T07:28:19.703Z,82.40
2018-11-23T07:30:47.294Z,82.40
2018-11-23T07:33:14.911Z,82.80
2018-11-23T07:35:42.510Z,82.60
2018-11-23T07:38:10.061Z,82.10
2018-11-23T07:40:50.227Z,82.10
2018-11-23T07:43:17.723Z,83.50
2018-11-23T07:45:45.249Z,82.70
2018-11-23T07:48:12.806Z,82.90
2018-11-23T07:50:40.359Z,82.90
2018-11-23T07:53:08.224Z,82.80
2018-11-23T07:55:35.790Z,83.10
2018-11-23T07:58:03.738Z,83.20
2018-11-23T08:00:31.397Z,83.80
2018-11-23T08:02:59.077Z,84.20
2018-11-23T08:05:26.588Z,84.20
2018-11-23T08:07:54.166Z,84.40
2018-11-23T08:10:21.260Z,84.50
2018-11-23T08:12:49.765Z,84.50
2018-11-23T08:15:19.243Z,85.20
2018-11-23T08:17:46.850Z,84.90
2018-11-23T08:20:15.560Z,85.20
2018-11-23T08:22:43.310Z,85.30
2018-11-23T08:25:12.054Z,85.60
2018-11-23T08:27:39.970Z,85.30
2018-11-23T08:30:11.689Z,85.40
2018-11-23T08:32:39.327Z,85.40
2018-11-23T08:35:06.960Z,85.30
2018-11-23T08:37:34.663Z,86.00
2018-11-23T08:40:02.616Z,85.70
2018-11-23T08:42:30.361Z,86.00
2018-11-23T08:44:57.956Z,85.80
2018-11-23T08:47:25.576Z,85.70
2018-11-23T08:49:53.136Z,85.70
2018-11-23T08:52:20.637Z,86.60
2018-11-23T08:54:48.231Z,86.50
2018-11-23T08:57:15.783Z,86.60
2018-11-23T08:59:43.393Z,86.60
2018-11-23T09:02:10.940Z,86.40
2018-11-23T09:04:38.539Z,86.10
2018-11-23T09:07:06.092Z,86.20
2018-11-23T09:09:34.010Z,86.70
2018-11-23T09:12:01.275Z,86.60
2018-11-23T09:14:28.907Z,86.10
2018-11-23T09:16:56.536Z,86.00
2018-11-23T09:19:24.153Z,86.10
2018-11-23T09:21:51.739Z,86.10
2018-11-23T09:24:19.513Z,86.30
2018-11-23T09:26:47.063Z,86.00
2018-11-23T09:29:14.647Z,86.30
2018-11-23T09:31:42.199Z,86.30
2018-11-23T09:34:09.744Z,86.10
2018-11-23T09:36:37.342Z,85.90
2018-11-23T09:39:06.918Z,85.60
2018-11-23T09:41:34.654Z,86.10
2018-11-23T09:44:02.192Z,86.40
2018-11-23T09:46:29.826Z,86.40
2018-11-23T09:48:57.440Z,86.50
2018-11-23T09:51:25.065Z,86.60
2018-11-23T09:53:52.788Z,87.30
2018-11-23T09:56:20.927Z,87.20
2018-11-23T09:58:48.487Z,86.80
2018-11-23T10:01:15.944Z,86.90
2018-11-23T10:03:43.580Z,86.80
2018-11-23T10:06:11.144Z,86.50
2018-11-23T10:08:38.678Z,86.40
2018-11-23T10:11:06.281Z,86.50
2018-11-23T10:13:33.869Z,86.50
2018-11-23T10:16:01.558Z,86.60
2018-11-23T10:18:29.178Z,86.90
2018-11-23T10:20:56.840Z,87.00
2018-11-23T10:23:24.530Z,86.90
2018-11-23T10:25:52.102Z,86.80
2018-11-23T10:28:19.629Z,86.80
2018-11-23T10:30:47.227Z,86.80
2018-11-23T10:33:14.849Z,87.00
2018-11-23T10:35:42.449Z,87.00
2018-11-23T10:38:10.078Z,86.90
2018-11-23T10:40:39.078Z,87.10
2018-11-23T10:43:06.845Z,86.90
2018-11-23T10:45:34.621Z,86.90
2018-11-23T10:48:03.163Z,87.20
2018-11-23T10:50:32.219Z,87.10
2018-11-23T10:52:59.777Z,87.30
2018-11-23T10:55:29.050Z,87.40
2018-11-23T10:57:56.528Z,87.40
2018-11-23T11:00:29.796Z,87.60
2018-11-23T11:03:07.860Z,87.80
2018-11-23T11:05:41.015Z,87.90
2018-11-23T11:08:08.563Z,87.90
2018-11-23T11:10:36.139Z,87.80
2018-11-23T11:13:04.041Z,87.80
2018-11-23T11:15:31.584Z,87.60
2018-11-23T11:17:59.100Z,87.60
2018-11-23T11:20:26.647Z,87.60
2018-11-23T11:22:54.222Z,87.60
2018-11-23T11:25:21.839Z,87.70
2018-11-23T11:27:49.533Z,87.80
2018-11-23T11:30:17.817Z,87.80
2018-11-23T11:32:46.114Z,87.90
2018-11-23T11:35:13.794Z,88.00
2018-11-23T11:37:42.065Z,88.00
2018-11-23T11:40:11.537Z,87.90
2018-11-23T11:42:39.835Z,87.80
2018-11-23T11:45:08.994Z,87.80
2018-11-23T11:47:36.583Z,87.70
2018-11-23T11:50:06.472Z,87.60
2018-11-23T11:52:34.481Z,87.40
2018-11-23T11:55:02.100Z,87.40
2018-11-23T11:57:29.725Z,87.40
2018-11-23T11:59:57.290Z,87.40
2018-11-23T12:02:24.947Z,87.10
2018-11-23T12:04:52.475Z,87.00
2018-11-23T12:07:20.008Z,86.90
2018-11-23T12:09:47.647Z,86.80
2018-11-23T12:12:15.170Z,87.00
2018-11-23T12:14:42.745Z,87.00
2018-11-23T12:17:10.281Z,87.00
2018-11-23T12:19:37.844Z,87.00
2018-11-23T12:22:05.512Z,87.00
2018-11-23T12:24:33.058Z,87.00
2018-11-23T12:27:00.602Z,86.90
2018-11-23T12:29:28.195Z,86.90
2018-11-23T12:31:55.753Z,87.00
2018-11-23T12:34:23.269Z,87.00
2018-11-23T12:36:50.868Z,87.10
2018-11-23T12:39:18.424Z,87.10
2018-11-23T12:41:45.943Z,87.10
2018-11-23T12:44:13.567Z,87.30
2018-11-23T12:46:41.077Z,87.40
2018-11-23T12:49:08.692Z,87.50
2018-11-23T12:51:36.253Z,87.40
2018-11-23T12:54:04.416Z,87.50
2018-11-23T12:56:31.975Z,87.40
2018-11-23T12:58:59.559Z,87.40
2018-11-23T13:01:27.129Z,87.50
2018-11-23T13:03:54.763Z,87.30
2018-11-23T13:06:22.345Z,87.70
2018-11-23T13:15:16.959Z,87.50
2018-11-23T13:17:49.384Z,87.50
2018-11-23T13:20:16.899Z,87.50
2018-11-23T13:22:44.592Z,87.30
2018-11-23T13:25:14.603Z,86.60
2018-11-23T13:27:43.039Z,87.30
2018-11-23T13:30:13.347Z,87.40
2018-11-23T13:32:44.910Z,87.50
2018-11-23T13:35:14.203Z,87.60
2018-11-23T13:37:44.615Z,87.40
2018-11-23T13:40:16.186Z,87.30
2018-11-23T13:42:45.835Z,87.20
2018-11-23T13:45:16.533Z,87.50
2018-11-23T13:47:45.670Z,87.40
2018-11-23T13:50:16.941Z,87.30
2018-11-23T13:52:52.656Z,87.40
2018-11-23T13:55:20.287Z,87.40
2018-11-23T13:57:47.867Z,87.20
2018-11-23T14:00:17.917Z,87.00
2018-11-23T14:02:46.179Z,86.90
2018-11-23T14:05:15.182Z,87.00
2018-11-23T14:07:43.953Z,87.10
2018-11-23T14:10:13.731Z,87.00
2018-11-23T14:12:48.251Z,87.00
2018-11-23T14:15:19.332Z,87.60
2018-11-23T14:17:48.023Z,87.00
2018-11-23T14:20:16.547Z,86.80
2018-11-23T14:22:44.153Z,86.40
2018-11-23T14:25:13.371Z,86.20
2018-11-23T14:27:41.333Z,86.10
2018-11-23T14:30:11.261Z,85.90
2018-11-23T14:32:39.143Z,85.80
2018-11-23T14:35:07.724Z,85.50
2018-11-23T14:37:35.826Z,85.70
2018-11-23T14:40:03.471Z,85.70
2018-11-23T14:42:30.979Z,85.80
2018-11-23T14:44:58.562Z,85.80
2018-11-23T14:47:26.207Z,86.60
2018-11-23T14:49:53.891Z,85.80
2018-11-23T14:52:21.588Z,85.70
2018-11-23T14:54:49.152Z,85.60
2018-11-23T14:57:16.961Z,85.80
2018-11-23T14:59:44.716Z,85.70
2018-11-23T15:02:12.273Z,85.70
2018-11-23T15:04:39.849Z,85.80
2018-11-23T15:07:07.407Z,85.80
2018-11-23T15:09:35.002Z,85.80
2018-11-23T15:12:02.644Z,85.80
2018-11-23T15:14:30.122Z,85.80
2018-11-23T15:16:57.704Z,85.90
2018-11-23T15:19:25.265Z,86.00
2018-11-23T15:21:53.122Z,85.90
2018-11-23T15:24:20.801Z,85.80
2018-11-23T15:26:48.466Z,85.80
2018-11-23T15:29:15.978Z,86.00
2018-11-23T15:31:43.544Z,85.70
2018-11-23T15:34:11.341Z,85.50
2018-11-23T15:36:38.875Z,86.10
2018-11-23T15:39:08.991Z,85.40
2018-11-23T15:41:36.918Z,85.30
2018-11-23T15:44:05.014Z,85.00
2018-11-23T15:46:37.059Z,85.00
2018-11-23T15:49:07.040Z,85.00
2018-11-23T15:51:34.794Z,85.10
2018-11-23T15:54:02.776Z,85.20
2018-11-23T15:56:30.371Z,85.20
2018-11-23T15:58:59.578Z,85.20
2018-11-23T16:01:27.311Z,85.40
2018-11-23T16:03:57.297Z,85.30
2018-11-23T16:06:27.950Z,85.30
2018-11-23T16:08:57.416Z,85.20
2018-11-23T16:11:25.111Z,85.30
2018-11-23T16:13:52.781Z,85.30
2018-11-23T16:16:20.702Z,85.50
2018-11-23T16:18:48.256Z,85.30
2018-11-23T16:21:15.871Z,85.30
2018-11-23T16:23:43.495Z,85.30
2018-11-23T16:26:11.106Z,85.10
2018-11-23T16:28:38.831Z,85.50
2018-11-23T16:31:06.772Z,85.50
2018-11-23T16:33:34.513Z,85.20
2018-11-23T16:36:02.081Z,85.10
2018-11-23T16:38:29.814Z,84.90
2018-11-23T16:40:57.466Z,84.80
2018-11-23T16:43:25.073Z,85.00
2018-11-23T16:45:53.228Z,84.90
2018-11-23T16:48:21.770Z,84.90
2018-11-23T16:50:49.469Z,85.00
2018-11-23T16:53:16.977Z,84.60
2018-11-23T16:55:44.602Z,84.50
2018-11-23T16:58:12.966Z,84.70
2018-11-23T17:00:42.996Z,84.70
2018-11-23T17:03:12.397Z,84.70
2018-11-23T17:05:41.378Z,84.60
2018-11-23T17:08:09.261Z,84.70
2018-11-23T17:10:37.735Z,84.60
2018-11-23T17:13:05.291Z,84.80
2018-11-23T17:15:32.843Z,85.00
2018-11-23T17:18:00.338Z,85.20
2018-11-23T17:20:29.294Z,84.90
2018-11-23T17:22:58.078Z,84.50
2018-11-23T17:25:26.350Z,84.50
2018-11-23T17:27:54.969Z,84.90
2018-11-23T17:30:25.177Z,84.90
2018-11-23T17:32:52.963Z,84.80
2018-11-23T17:35:20.680Z,84.80
2018-11-23T17:37:48.254Z,84.80
2018-11-23T17:40:17.173Z,84.90
2018-11-23T17:42:44.724Z,84.80
2018-11-23T17:45:13.835Z,84.80
2018-11-23T17:47:41.465Z,84.60
2018-11-23T17:50:10.384Z,84.60
2018-11-23T17:52:37.891Z,84.50
2018-11-23T17:55:06.473Z,84.40
2018-11-23T17:57:34.090Z,84.40
2018-11-23T18:00:01.680Z,84.40
2018-11-23T18:02:30.047Z,84.70
2018-11-23T18:04:57.572Z,84.50
2018-11-23T18:07:25.211Z,84.70
2018-11-23T18:09:52.743Z,85.10
2018-11-23T18:12:20.308Z,85.00
2018-11-23T18:14:47.873Z,85.00
2018-11-23T18:17:15.664Z,85.10
2018-11-23T18:19:43.233Z,84.50
2018-11-23T18:22:10.806Z,84.60
2018-11-23T18:24:38.549Z,84.80
2018-11-23T18:27:06.270Z,84.90
2018-11-23T18:29:33.864Z,84.60
2018-11-23T18:32:01.473Z,84.50
2018-11-23T18:34:29.088Z,84.40
2018-11-23T18:36:56.695Z,84.40
2018-11-23T18:39:24.432Z,85.00
2018-11-23T18:41:52.088Z,84.90
2018-11-23T18:44:19.729Z,84.70
2018-11-23T18:46:47.376Z,84.70
2018-11-23T18:49:15.036Z,84.80
2018-11-23T18:51:42.585Z,84.80
2018-11-23T18:54:10.174Z,85.50
2018-11-23T18:56:37.796Z,84.20
2018-11-23T18:59:05.414Z,84.10
2018-11-23T19:01:32.962Z,84.40
2018-11-23T19:04:00.651Z,84.40
2018-11-23T19:06:28.263Z,84.20
2018-11-23T19:08:55.855Z,84.30
2018-11-23T19:11:23.434Z,84.20
2018-11-23T19:13:51.204Z,84.70
2018-11-23T19:16:18.919Z,84.40
2018-11-23T19:18:46.476Z,84.20
2018-11-23T19:21:14.075Z,84.50
2018-11-23T19:23:41.570Z,84.40
2018-11-23T19:26:09.157Z,84.80
2018-11-23T19:28:36.731Z,85.00
2018-11-23T19:31:04.720Z,85.20
2018-11-23T19:33:32.371Z,85.40
2018-11-23T19:36:00.007Z,86.30
2018-11-23T19:38:27.552Z,85.90
2018-11-23T19:40:55.163Z,86.20
2018-11-23T19:43:22.745Z,86.30
2018-11-23T19:45:50.349Z,86.50
2018-11-23T19:48:17.909Z,86.90
2018-11-23T19:50:45.537Z,87.20
2018-11-23T19:53:13.159Z,87.00
2018-11-23T19:55:40.826Z,87.20
2018-11-23T19:58:08.359Z,87.10
2018-11-23T20:00:35.965Z,87.20
2018-11-23T20:03:03.672Z,87.10
2018-11-23T20:05:31.259Z,87.00
2018-11-23T20:07:58.926Z,87.60
2018-11-23T20:10:26.449Z,87.80
2018-11-23T20:12:55.419Z,88.10
2018-11-23T20:15:22.995Z,88.40
2018-11-23T20:17:50.594Z,88.60
2018-11-23T20:20:18.229Z,88.80
2018-11-23T20:22:46.781Z,88.80
2018-11-23T20:25:16.241Z,89.00
2018-11-23T20:27:44.394Z,89.00
2018-11-23T20:30:14.060Z,89.00
2018-11-23T20:32:41.752Z,88.80
2018-11-23T20:35:11.488Z,88.60
2018-11-23T20:37:39.121Z,88.60
2018-11-23T20:40:22.633Z,88.50
2018-11-23T20:42:50.397Z,88.40
2018-11-23T20:45:18.198Z,88.50
2018-11-23T20:47:45.777Z,88.50
2018-11-23T20:50:14.502Z,88.50
2018-11-23T20:52:42.151Z,88.70
2018-11-23T20:55:10.939Z,88.70
2018-11-23T20:57:38.518Z,89.50
2018-11-23T21:00:12.275Z,88.80
2018-11-23T21:02:39.832Z,88.70
2018-11-23T21:05:08.776Z,88.70
2018-11-23T21:07:36.633Z,88.60
2018-11-23T21:10:08.525Z,88.50
2018-11-23T21:12:36.117Z,88.30
2018-11-23T21:15:04.071Z,88.10
2018-11-23T21:17:31.667Z,87.70
2018-11-23T21:19:59.238Z,87.50
2018-11-23T21:22:26.767Z,87.50
2018-11-23T21:24:54.341Z,87.20
2018-11-23T21:27:21.893Z,87.00
2018-11-23T21:29:49.477Z,86.80
2018-11-23T21:32:17.114Z,86.90
2018-11-23T21:34:44.706Z,86.70
2018-11-23T21:37:12.321Z,86.80
2018-11-23T21:39:39.909Z,86.60
2018-11-23T21:42:07.578Z,86.60
2018-11-23T21:44:35.148Z,86.60
2018-11-23T21:47:02.786Z,86.50
2018-11-23T21:49:30.244Z,86.70
2018-11-23T21:51:57.783Z,86.40
2018-11-23T21:54:25.437Z,86.10
2018-11-23T21:56:53.091Z,86.10
2018-11-23T21:59:20.681Z,86.50
2018-11-23T22:01:48.144Z,86.70
2018-11-23T22:04:15.723Z,86.50
2018-11-23T22:06:43.376Z,86.30
2018-11-23T22:09:10.943Z,86.50
2018-11-23T22:11:38.445Z,86.60
2018-11-23T22:14:06.055Z,86.60
2018-11-23T22:16:33.599Z,86.70
2018-11-23T22:19:01.100Z,86.70
2018-11-23T22:21:28.641Z,86.70
2018-11-23T22:24:01.399Z,86.70
2018-11-23T22:26:23.867Z,86.80
2018-11-23T22:28:51.469Z,86.80
2018-11-23T22:31:19.054Z,86.90
2018-11-23T22:33:46.575Z,86.70
2018-11-23T22:36:14.155Z,86.90
2018-11-23T22:38:41.685Z,86.90
2018-11-23T22:41:09.408Z,87.10
2018-11-23T22:43:36.976Z,87.10
2018-11-23T22:46:04.797Z,87.10
2018-11-23T22:48:32.296Z,86.90
2018-11-23T22:50:59.889Z,86.70
2018-11-23T22:53:27.395Z,86.80
2018-11-23T22:55:54.949Z,86.40
2018-11-23T22:58:22.477Z,86.30
2018-11-23T23:00:54.597Z,87.20
2018-11-23T23:03:22.172Z,86.20
2018-11-23T23:05:49.818Z,86.60
2018-11-23T23:08:17.276Z,86.50
2018-11-23T23:10:45.741Z,86.60
2018-11-23T23:13:13.382Z,86.70
2018-11-23T23:15:40.863Z,87.00
2018-11-23T23:18:08.362Z,87.20
2018-11-23T23:20:36.006Z,87.40
2018-11-23T23:23:03.872Z,87.50
2018-11-23T23:25:31.519Z,87.70
2018-11-23T23:27:59.072Z,87.80
2018-11-23T23:30:26.621Z,87.70
2018-11-23T23:32:54.212Z,87.60
2018-11-23T23:35:21.806Z,87.60
2018-11-23T23:37:49.347Z,87.60
2018-11-23T23:40:17.318Z,87.60
2018-11-23T23:42:45.237Z,87.60
2018-11-23T23:45:13.759Z,87.50
2018-11-23T23:47:41.347Z,87.50
2018-11-23T23:50:15.203Z,87.20
2018-11-23T23:52:42.818Z,87.10
2018-11-23T23:55:10.546Z,86.80
2018-11-23T23:57:39.101Z,87.10
